Time;durP1;ratioP1;P1;durP2;ratioP2;P2;SDS_P1;SDS_P2;PMS_P1;PMS_P2;Temp;Humidity;BMP_temperature;BMP_pressure;BME280_temperature;BME280_humidity;BME280_pressure;Samples;Min_cycle;Max_cycle;Signal;HPM_P1;HPM_P2
2021/12/17 00:00:26;;;;;;;266.10;61.97;;;;;;;;;;5043100;28;20221;-69
2021/12/17 00:03:12;;;;;;;140.77;45.07;;;;;;;;;;5041806;28;20748;-70
2021/12/17 00:06:06;;;;;;;176.17;51.80;;;;;;;;;;5041544;28;20232;-70
2021/12/17 00:08:33;;;;;;;180.53;49.20;;;;;;;;;;5042030;28;20550;-70
2021/12/17 00:11:00;;;;;;;131.57;42.67;;;;;;;;;;5042748;28;20233;-70
2021/12/17 00:13:26;;;;;;;184.03;50.27;;;;;;;;;;5042030;28;20218;-70
2021/12/17 00:15:54;;;;;;;184.63;50.93;;;;;;;;;;5041079;28;20608;-69
2021/12/17 00:18:26;;;;;;;120.77;40.53;;;;;;;;;;5041952;28;20212;-69
2021/12/17 00:43:55;;;;;;;98.43;23.40;;;;;;;;;;5040460;28;20290;-69
2021/12/17 00:48:49;;;;;;;72.13;19.37;;;;;;;;;;5040059;28;20272;-70
2021/12/17 00:54:07;;;;;;;148.37;25.43;;;;;;;;;;5042173;28;20297;-69
2021/12/17 00:56:34;;;;;;;198.30;30.77;;;;;;;;;;5041550;28;20230;-70
2021/12/17 00:59:01;;;;;;;140.70;24.17;;;;;;;;;;5039930;28;20283;-69
2021/12/17 01:01:27;;;;;;;155.97;27.10;;;;;;;;;;5041599;28;20363;-69
2021/12/17 01:03:56;;;;;;;175.03;27.53;;;;;;;;;;5041130;28;20320;-70
2021/12/17 01:06:23;;;;;;;159.90;26.07;;;;;;;;;;5038453;28;20228;-70
2021/12/17 01:08:51;;;;;;;130.13;24.17;;;;;;;;;;5040903;28;20226;-69
2021/12/17 01:11:17;;;;;;;164.97;27.30;;;;;;;;;;5040457;28;20228;-69
2021/12/17 01:13:44;;;;;;;167.73;24.63;;;;;;;;;;5039421;28;20955;-69
2021/12/17 01:16:11;;;;;;;132.83;23.20;;;;;;;;;;5040402;28;21159;-69
2021/12/17 01:18:49;;;;;;;161.10;26.07;;;;;;;;;;5041195;28;20226;-70
2021/12/17 01:21:27;;;;;;;125.07;25.47;;;;;;;;;;5039244;28;20672;-69
2021/12/17 01:24:07;;;;;;;109.50;24.47;;;;;;;;;;5039733;28;20204;-70
2021/12/17 01:43:09;;;;;;;100.73;21.47;;;;;;;;;;5041370;28;20236;-74
2021/12/17 01:45:38;;;;;;;151.53;28.37;;;;;;;;;;5038645;28;20211;-73
2021/12/17 01:48:12;;;;;;;109.33;24.20;;;;;;;;;;5040811;28;20206;-73
2021/12/17 01:56:18;;;;;;;110.77;23.30;;;;;;;;;;5015786;28;20322;-73
2021/12/17 02:01:29;;;;;;;105.90;22.80;;;;;;;;;;5040234;28;20771;-73
2021/12/17 02:03:56;;;;;;;86.73;19.20;;;;;;;;;;5038867;28;20219;-73
2021/12/17 02:06:24;;;;;;;72.30;17.73;;;;;;;;;;5039414;28;20276;-73
2021/12/17 02:08:53;;;;;;;65.07;18.33;;;;;;;;;;5041078;28;20299;-73
2021/12/17 02:12:00;;;;;;;63.40;18.07;;;;;;;;;;5038157;28;20231;-73
2021/12/17 02:20:10;;;;;;;84.07;21.57;;;;;;;;;;5040620;28;21097;-73
2021/12/17 02:31:05;;;;;;;61.30;18.73;;;;;;;;;;5035432;28;20270;-70
2021/12/17 02:33:32;;;;;;;73.47;18.47;;;;;;;;;;5039769;28;20735;-70
2021/12/17 02:36:00;;;;;;;71.87;18.10;;;;;;;;;;5038906;28;20208;-73
2021/12/17 02:38:30;;;;;;;71.77;17.90;;;;;;;;;;5039294;28;20567;-73
2021/12/17 02:46:26;;;;;;;78.53;19.23;;;;;;;;;;5037462;28;20276;-71
2021/12/17 02:48:53;;;;;;;70.60;17.77;;;;;;;;;;5039817;28;20925;-71
2021/12/17 02:51:22;;;;;;;83.57;20.83;;;;;;;;;;5040054;28;20207;-71
2021/12/17 02:53:50;;;;;;;74.27;18.20;;;;;;;;;;5038516;28;20297;-71
2021/12/17 02:56:17;;;;;;;103.63;21.63;;;;;;;;;;5039444;28;20230;-71
2021/12/17 02:58:43;;;;;;;89.63;18.73;;;;;;;;;;5039790;28;20248;-71
2021/12/17 03:01:12;;;;;;;82.57;20.23;;;;;;;;;;5037960;28;20306;-71
2021/12/17 03:03:40;;;;;;;95.60;21.60;;;;;;;;;;5038948;28;20213;-71
2021/12/17 03:06:07;;;;;;;94.80;20.60;;;;;;;;;;5040008;28;20241;-71
2021/12/17 03:08:33;;;;;;;111.07;20.47;;;;;;;;;;5037926;28;20669;-71
2021/12/17 03:11:02;;;;;;;84.33;18.80;;;;;;;;;;5037605;28;20283;-71
2021/12/17 03:13:32;;;;;;;104.80;20.43;;;;;;;;;;5040042;28;20586;-71
2021/12/17 03:16:03;;;;;;;97.67;20.47;;;;;;;;;;5038180;28;20243;-71
2021/12/17 03:24:04;;;;;;;120.07;21.43;;;;;;;;;;5040297;28;20253;-71
2021/12/17 03:26:32;;;;;;;89.27;19.43;;;;;;;;;;5042137;28;20611;-71
2021/12/17 03:29:02;;;;;;;68.03;17.47;;;;;;;;;;5042310;28;20283;-71
2021/12/17 03:31:29;;;;;;;90.10;21.60;;;;;;;;;;5043432;28;20230;-71
2021/12/17 03:34:03;;;;;;;92.40;20.20;;;;;;;;;;5042687;28;20678;-71
2021/12/17 03:36:31;;;;;;;101.37;21.47;;;;;;;;;;5041787;28;20207;-71
2021/12/17 03:38:57;;;;;;;82.53;21.13;;;;;;;;;;5042909;28;20307;-71
2021/12/17 03:41:29;;;;;;;77.87;19.00;;;;;;;;;;5042692;28;20226;-72
2021/12/17 03:43:57;;;;;;;84.60;21.70;;;;;;;;;;5040754;28;20219;-71
2021/12/17 03:46:23;;;;;;;68.50;19.80;;;;;;;;;;5042684;28;20227;-71
2021/12/17 03:48:50;;;;;;;77.77;19.40;;;;;;;;;;5042405;28;20793;-71
2021/12/17 03:51:18;;;;;;;95.87;22.70;;;;;;;;;;5041056;28;20209;-71
2021/12/17 03:53:47;;;;;;;76.93;19.77;;;;;;;;;;5042388;28;20212;-71
2021/12/17 03:56:13;;;;;;;64.13;19.00;;;;;;;;;;5043406;28;20325;-71
2021/12/17 03:58:40;;;;;;;75.20;20.23;;;;;;;;;;5042152;28;20722;-71
2021/12/17 04:01:08;;;;;;;84.60;20.40;;;;;;;;;;5040561;28;20730;-71
2021/12/17 04:03:35;;;;;;;82.87;21.70;;;;;;;;;;5042664;28;20240;-71
2021/12/17 04:06:02;;;;;;;56.57;17.27;;;;;;;;;;5042362;28;20210;-71
2021/12/17 04:08:30;;;;;;;69.83;18.93;;;;;;;;;;5041067;28;20262;-71
2021/12/17 04:11:03;;;;;;;42.43;16.33;;;;;;;;;;5041269;28;20243;-71
2021/12/17 04:13:33;;;;;;;42.80;16.10;;;;;;;;;;5042482;28;20213;-71
2021/12/17 04:16:02;;;;;;;45.37;15.67;;;;;;;;;;5041059;28;20232;-71
2021/12/17 04:18:30;;;;;;;53.23;17.87;;;;;;;;;;5041412;28;20216;-71
2021/12/17 04:20:59;;;;;;;98.97;22.73;;;;;;;;;;5041817;28;20277;-71
2021/12/17 04:23:25;;;;;;;43.80;15.83;;;;;;;;;;5041117;28;20216;-71
2021/12/17 04:25:52;;;;;;;60.73;18.70;;;;;;;;;;5041010;28;20228;-71
2021/12/17 04:28:20;;;;;;;35.30;14.83;;;;;;;;;;5041942;28;20757;-71
2021/12/17 04:30:47;;;;;;;44.70;14.33;;;;;;;;;;5041246;28;20330;-71
2021/12/17 04:33:15;;;;;;;65.93;19.67;;;;;;;;;;5040600;28;20290;-71
2021/12/17 04:35:43;;;;;;;60.03;18.37;;;;;;;;;;5042101;28;20655;-71
2021/12/17 04:38:12;;;;;;;39.30;17.00;;;;;;;;;;5041897;28;20351;-71
2021/12/17 04:40:41;;;;;;;51.57;18.30;;;;;;;;;;5041206;28;20307;-71
2021/12/17 04:43:19;;;;;;;75.23;21.60;;;;;;;;;;5042218;28;20285;-71
2021/12/17 04:45:53;;;;;;;94.47;24.17;;;;;;;;;;5042169;28;20235;-71
2021/12/17 04:59:17;;;;;;;69.90;20.30;;;;;;;;;;5040321;28;20227;-71
2021/12/17 05:01:43;;;;;;;58.73;19.67;;;;;;;;;;5039580;28;20646;-71
2021/12/17 05:04:10;;;;;;;67.03;21.97;;;;;;;;;;5041751;28;20214;-71
2021/12/17 05:06:38;;;;;;;70.50;22.57;;;;;;;;;;5040258;28;20264;-71
2021/12/17 05:09:10;;;;;;;80.60;22.47;;;;;;;;;;5040133;28;20206;-71
2021/12/17 05:19:51;;;;;;;48.73;18.67;;;;;;;;;;5040000;28;21189;-71
2021/12/17 05:22:19;;;;;;;68.37;21.93;;;;;;;;;;5041644;28;20213;-71
2021/12/17 05:24:46;;;;;;;68.80;21.30;;;;;;;;;;5038715;28;20769;-71
2021/12/17 05:27:12;;;;;;;81.50;22.63;;;;;;;;;;5039998;28;20232;-71
2021/12/17 05:29:39;;;;;;;63.63;19.83;;;;;;;;;;5042326;28;20209;-71
2021/12/17 05:32:06;;;;;;;85.55;27.98;;;;;;;;;;5039099;28;20448;-76
2021/12/17 05:34:32;;;;;;;88.77;23.57;;;;;;;;;;5040257;28;20268;-76
2021/12/17 05:36:59;;;;;;;73.90;20.43;;;;;;;;;;5041385;28;20269;-76
2021/12/17 05:39:27;;;;;;;69.53;21.50;;;;;;;;;;5040547;28;20666;-76
2021/12/17 05:41:53;;;;;;;71.33;21.70;;;;;;;;;;5039092;28;20215;-75
2021/12/17 05:44:21;;;;;;;81.47;22.17;;;;;;;;;;5040988;28;20625;-75
2021/12/17 05:46:50;;;;;;;66.33;19.83;;;;;;;;;;5040586;28;20283;-75
2021/12/17 05:49:17;;;;;;;70.80;21.70;;;;;;;;;;5038952;28;20232;-76
2021/12/17 05:51:44;;;;;;;77.30;21.83;;;;;;;;;;5040800;28;20222;-76
2021/12/17 05:54:10;;;;;;;86.30;23.10;;;;;;;;;;5041415;28;20219;-76
2021/12/17 05:56:38;;;;;;;105.57;24.17;;;;;;;;;;5039550;28;20809;-76
2021/12/17 05:59:05;;;;;;;73.53;21.30;;;;;;;;;;5039822;28;20586;-76
2021/12/17 06:01:32;;;;;;;67.03;19.83;;;;;;;;;;5040948;28;20255;-76
2021/12/17 06:03:59;;;;;;;74.77;21.27;;;;;;;;;;5039871;28;20390;-76
2021/12/17 06:06:26;;;;;;;71.60;19.73;;;;;;;;;;5039334;28;20278;-76
2021/12/17 06:08:53;;;;;;;97.63;21.13;;;;;;;;;;5041326;28;20233;-76
2021/12/17 06:11:19;;;;;;;72.87;19.90;;;;;;;;;;5038337;28;20425;-76
2021/12/17 06:13:47;;;;;;;65.60;18.27;;;;;;;;;;5038260;28;20226;-76
2021/12/17 06:16:14;;;;;;;79.33;20.17;;;;;;;;;;5040807;28;20230;-76
2021/12/17 06:18:40;;;;;;;89.50;21.70;;;;;;;;;;5039886;28;20602;-76
2021/12/17 06:21:07;;;;;;;101.60;23.70;;;;;;;;;;5038622;28;20238;-76
2021/12/17 06:23:33;;;;;;;85.00;21.33;;;;;;;;;;5040975;28;20663;-75
2021/12/17 06:25:59;;;;;;;119.73;25.63;;;;;;;;;;5038590;28;20317;-75
2021/12/17 06:28:26;;;;;;;68.17;20.03;;;;;;;;;;5038254;28;20302;-75
2021/12/17 06:30:54;;;;;;;95.90;23.13;;;;;;;;;;5040701;28;20646;-76
2021/12/17 06:33:20;;;;;;;101.20;23.60;;;;;;;;;;5039917;28;20298;-75
2021/12/17 06:35:47;;;;;;;104.93;24.07;;;;;;;;;;5038836;28;20905;-76
2021/12/17 06:38:13;;;;;;;115.27;25.67;;;;;;;;;;5039276;28;20515;-76
2021/12/17 06:40:40;;;;;;;108.60;24.83;;;;;;;;;;5039449;28;20296;-76
2021/12/17 06:43:06;;;;;;;127.07;27.40;;;;;;;;;;5037743;28;20268;-77
2021/12/17 06:45:49;;;;;;;64.13;20.07;;;;;;;;;;5039880;28;20451;-77
2021/12/17 06:48:22;;;;;;;167.07;29.90;;;;;;;;;;5040223;28;20613;-76
2021/12/17 06:57:02;;;;;;;113.13;23.97;;;;;;;;;;5039530;28;20238;-77
2021/12/17 06:59:38;;;;;;;143.00;26.17;;;;;;;;;;5043476;28;20210;-76
2021/12/17 07:10:41;;;;;;;94.07;19.63;;;;;;;;;;5040123;28;20279;-76
2021/12/17 07:21:41;;;;;;;85.80;20.60;;;;;;;;;;5038920;28;20270;-76
2021/12/17 07:32:36;;;;;;;110.67;22.63;;;;;;;;;;5040967;28;20246;-78
2021/12/17 07:35:25;;;;;;;98.17;19.83;;;;;;;;;;5040961;28;20687;-78
2021/12/17 07:40:37;;;;;;;174.13;28.33;;;;;;;;;;5043188;28;20249;-78
2021/12/17 07:43:11;;;;;;;164.83;28.00;;;;;;;;;;5041693;28;20212;-78
2021/12/17 07:45:38;;;;;;;229.53;28.50;;;;;;;;;;5042149;28;20212;-78
2021/12/17 07:48:05;;;;;;;206.67;29.30;;;;;;;;;;5043707;28;20534;-78
2021/12/17 07:50:31;;;;;;;180.27;28.13;;;;;;;;;;5043134;28;20637;-78
2021/12/17 07:52:59;;;;;;;294.90;34.43;;;;;;;;;;5043174;28;20268;-78
2021/12/17 07:55:26;;;;;;;247.60;29.63;;;;;;;;;;5041699;28;20236;-79
2021/12/17 07:57:52;;;;;;;200.70;27.23;;;;;;;;;;5044143;28;20213;-78
2021/12/17 08:00:19;;;;;;;203.73;27.43;;;;;;;;;;5043739;28;20211;-78
2021/12/17 08:02:46;;;;;;;231.43;29.80;;;;;;;;;;5043599;28;20277;-78
2021/12/17 08:05:12;;;;;;;178.67;26.50;;;;;;;;;;5044572;28;20219;-78
2021/12/17 08:07:39;;;;;;;157.63;24.93;;;;;;;;;;5043609;28;20657;-79
2021/12/17 08:10:07;;;;;;;156.60;26.27;;;;;;;;;;5043156;28;20229;-78
2021/12/17 08:12:35;;;;;;;187.03;25.40;;;;;;;;;;5043281;28;20219;-79
2021/12/17 08:15:04;;;;;;;161.83;28.93;;;;;;;;;;5044925;28;20304;-78
2021/12/17 08:17:44;;;;;;;184.40;29.97;;;;;;;;;;5045595;28;21187;-78
2021/12/17 08:26:13;;;;;;;192.80;31.87;;;;;;;;;;5113218;27;20572;-78
2021/12/17 08:28:56;;;;;;;237.23;35.90;;;;;;;;;;5084892;28;20807;-78
2021/12/17 08:31:23;;;;;;;292.80;40.27;;;;;;;;;;5086621;28;20226;-77
2021/12/17 08:33:50;;;;;;;169.97;31.83;;;;;;;;;;5087053;28;20210;-77
2021/12/17 08:36:16;;;;;;;180.20;32.60;;;;;;;;;;5082550;28;20633;-77
2021/12/17 08:38:43;;;;;;;178.23;31.83;;;;;;;;;;5084934;28;20226;-77
2021/12/17 08:41:11;;;;;;;234.93;38.53;;;;;;;;;;5084957;28;20227;-77
2021/12/17 08:43:37;;;;;;;102.93;26.93;;;;;;;;;;5085603;28;20244;-77
2021/12/17 08:46:04;;;;;;;155.30;32.27;;;;;;;;;;5083367;28;20317;-77
2021/12/17 08:48:31;;;;;;;128.90;28.10;;;;;;;;;;5084608;28;20236;-77
2021/12/17 08:50:59;;;;;;;118.33;29.63;;;;;;;;;;5083519;28;20207;-77
2021/12/17 08:53:26;;;;;;;83.37;23.00;;;;;;;;;;5086028;28;20563;-77
2021/12/17 08:55:53;;;;;;;92.33;25.80;;;;;;;;;;5082601;28;20235;-77
2021/12/17 08:58:21;;;;;;;89.27;26.03;;;;;;;;;;5082168;28;20697;-77
2021/12/17 09:00:48;;;;;;;68.90;21.07;;;;;;;;;;5087237;28;20216;-79
2021/12/17 09:03:15;;;;;;;43.50;17.90;;;;;;;;;;5087956;28;20700;-79
2021/12/17 09:05:44;;;;;;;52.00;19.13;;;;;;;;;;5087965;28;20242;-79
2021/12/17 09:08:11;;;;;;;66.23;21.03;;;;;;;;;;5087592;28;20210;-79
2021/12/17 09:10:38;;;;;;;71.77;20.93;;;;;;;;;;5086858;28;20219;-80
2021/12/17 09:13:07;;;;;;;52.03;20.10;;;;;;;;;;5089109;28;20235;-80
2021/12/17 09:15:35;;;;;;;59.27;19.60;;;;;;;;;;5091633;28;20199;-79
2021/12/17 09:18:01;;;;;;;57.83;19.90;;;;;;;;;;5088463;28;20214;-79
2021/12/17 09:20:28;;;;;;;46.80;17.37;;;;;;;;;;5089701;28;20232;-79
2021/12/17 09:22:55;;;;;;;43.13;17.57;;;;;;;;;;5085218;28;20545;-76
2021/12/17 09:25:21;;;;;;;47.77;18.73;;;;;;;;;;5085383;28;20238;-78
2021/12/17 09:27:48;;;;;;;48.23;17.77;;;;;;;;;;5085735;28;20211;-76
2021/12/17 09:30:17;;;;;;;44.67;16.80;;;;;;;;;;5084729;28;20268;-76
2021/12/17 09:32:46;;;;;;;42.33;16.53;;;;;;;;;;5085480;28;20222;-77
2021/12/17 09:35:13;;;;;;;47.20;17.40;;;;;;;;;;5080971;28;20397;-76
2021/12/17 09:37:40;;;;;;;68.37;19.83;;;;;;;;;;5071776;28;20537;-78
2021/12/17 09:40:10;;;;;;;53.87;19.43;;;;;;;;;;5074730;28;20238;-78
2021/12/17 09:42:38;;;;;;;51.00;18.47;;;;;;;;;;5076402;28;20208;-78
2021/12/17 09:45:07;;;;;;;46.40;17.33;;;;;;;;;;5073541;28;20239;-79
2021/12/17 09:47:33;;;;;;;48.77;17.83;;;;;;;;;;5075929;28;20341;-78
2021/12/17 09:50:01;;;;;;;43.90;17.07;;;;;;;;;;5073971;28;20239;-78
2021/12/17 09:52:28;;;;;;;47.60;17.20;;;;;;;;;;5073899;28;20625;-78
2021/12/17 09:54:57;;;;;;;44.53;16.53;;;;;;;;;;5072940;28;20231;-76
2021/12/17 09:57:25;;;;;;;49.33;17.10;;;;;;;;;;5070301;28;20775;-76
2021/12/17 09:59:52;;;;;;;39.90;14.77;;;;;;;;;;5073280;28;20235;-79
2021/12/17 10:02:19;;;;;;;30.17;13.23;;;;;;;;;;5074631;28;20276;-78
2021/12/17 10:04:45;;;;;;;34.13;13.80;;;;;;;;;;5072758;28;20226;-78
2021/12/17 10:07:22;;;;;;;40.20;16.30;;;;;;;;;;5075252;28;20214;-79
2021/12/17 10:09:50;;;;;;;39.17;14.73;;;;;;;;;;5073547;28;20222;-78
2021/12/17 10:12:17;;;;;;;35.53;14.00;;;;;;;;;;5073995;28;20204;-78
2021/12/17 10:14:58;;;;;;;40.80;14.60;;;;;;;;;;5070919;28;20215;-77
2021/12/17 10:17:26;;;;;;;35.00;12.87;;;;;;;;;;5070164;28;20860;-76
2021/12/17 10:19:54;;;;;;;48.97;14.73;;;;;;;;;;5070381;28;20317;-78
2021/12/17 10:22:23;;;;;;;42.97;14.60;;;;;;;;;;5072918;28;20340;-78
2021/12/17 10:25:03;;;;;;;47.27;14.83;;;;;;;;;;5072974;28;20262;-78
2021/12/17 10:27:33;;;;;;;38.87;14.27;;;;;;;;;;5073449;28;20212;-76
2021/12/17 10:30:08;;;;;;;33.27;13.50;;;;;;;;;;5070747;28;20217;-77
2021/12/17 10:32:35;;;;;;;36.63;12.87;;;;;;;;;;5068858;28;20234;-77
2021/12/17 10:35:10;;;;;;;39.30;14.60;;;;;;;;;;5069878;28;20236;-77
2021/12/17 10:37:41;;;;;;;30.57;13.43;;;;;;;;;;5069777;28;20211;-77
2021/12/17 10:40:19;;;;;;;33.27;13.67;;;;;;;;;;5070020;28;20232;-77
2021/12/17 10:42:56;;;;;;;24.33;10.87;;;;;;;;;;5069133;28;20207;-77
2021/12/17 10:45:28;;;;;;;23.37;11.33;;;;;;;;;;5069364;28;20232;-77
2021/12/17 10:48:20;;;;;;;20.30;9.20;;;;;;;;;;5067414;28;20686;-77
2021/12/17 10:50:47;;;;;;;17.97;8.60;;;;;;;;;;5071325;28;20215;-77
2021/12/17 10:53:15;;;;;;;14.43;8.27;;;;;;;;;;5068253;28;20319;-77
2021/12/17 10:55:46;;;;;;;16.03;8.27;;;;;;;;;;5068155;28;20224;-77
2021/12/17 10:58:13;;;;;;;15.67;8.13;;;;;;;;;;5069321;28;20209;-77
2021/12/17 11:00:47;;;;;;;18.17;9.20;;;;;;;;;;5069427;28;20207;-77
2021/12/17 11:03:14;;;;;;;17.93;8.97;;;;;;;;;;5068822;28;20203;-77
2021/12/17 11:05:41;;;;;;;15.07;8.00;;;;;;;;;;5069023;28;20227;-78
2021/12/17 11:08:24;;;;;;;15.03;7.37;;;;;;;;;;5072016;28;20211;-78
2021/12/17 11:10:57;;;;;;;15.43;8.17;;;;;;;;;;5072019;28;20227;-78
2021/12/17 11:13:24;;;;;;;18.20;8.47;;;;;;;;;;5074689;28;20223;-78
2021/12/17 11:15:51;;;;;;;13.60;7.83;;;;;;;;;;5073992;28;20230;-77
2021/12/17 11:18:19;;;;;;;11.60;7.53;;;;;;;;;;5072291;28;20204;-78
2021/12/17 11:20:46;;;;;;;15.40;7.83;;;;;;;;;;5072335;28;20679;-78
2021/12/17 11:23:14;;;;;;;15.50;8.33;;;;;;;;;;5074448;28;20236;-78
2021/12/17 11:25:44;;;;;;;16.83;8.20;;;;;;;;;;5071820;28;20235;-78
2021/12/17 11:28:12;;;;;;;15.97;8.47;;;;;;;;;;5071697;28;20315;-78
2021/12/17 11:30:42;;;;;;;16.20;8.37;;;;;;;;;;5073838;28;20220;-78
2021/12/17 11:33:09;;;;;;;15.27;7.67;;;;;;;;;;5073365;28;20293;-78
2021/12/17 11:35:38;;;;;;;13.20;8.50;;;;;;;;;;5073430;28;20212;-78
2021/12/17 11:38:11;;;;;;;17.97;8.37;;;;;;;;;;5071638;28;20591;-78
2021/12/17 11:40:41;;;;;;;14.43;7.93;;;;;;;;;;5072441;28;20265;-78
2021/12/17 11:43:26;;;;;;;11.93;7.63;;;;;;;;;;5071588;28;20235;-77
2021/12/17 11:45:59;;;;;;;13.03;7.60;;;;;;;;;;5071876;28;20240;-78
2021/12/17 11:48:27;;;;;;;13.13;8.23;;;;;;;;;;5072556;28;20603;-78
2021/12/17 11:51:05;;;;;;;13.50;7.57;;;;;;;;;;5072977;28;20216;-78
2021/12/17 11:53:33;;;;;;;11.70;7.53;;;;;;;;;;5072649;28;20207;-78
2021/12/17 11:56:01;;;;;;;10.87;7.53;;;;;;;;;;5071426;28;21111;-78
2021/12/17 11:58:49;;;;;;;14.00;8.60;;;;;;;;;;5070219;28;20852;-78
2021/12/17 12:01:55;;;;;;;10.70;7.90;;;;;;;;;;5072945;28;20641;-78
2021/12/17 12:04:41;;;;;;;13.23;8.07;;;;;;;;;;5069345;28;20216;-78
2021/12/17 12:07:10;;;;;;;13.37;8.67;;;;;;;;;;5069547;28;20932;-78
2021/12/17 12:09:57;;;;;;;11.77;8.77;;;;;;;;;;5070402;28;20881;-78
2021/12/17 12:12:51;;;;;;;14.57;8.83;;;;;;;;;;5068832;28;20901;-78
2021/12/17 12:15:37;;;;;;;14.00;8.60;;;;;;;;;;5068118;28;20221;-78
2021/12/17 12:18:10;;;;;;;13.97;9.37;;;;;;;;;;5068578;28;20258;-78
2021/12/17 12:21:04;;;;;;;12.90;8.67;;;;;;;;;;5067302;28;20223;-78
2021/12/17 12:23:51;;;;;;;14.67;8.90;;;;;;;;;;5068250;28;20219;-78
2021/12/17 12:26:24;;;;;;;16.47;9.47;;;;;;;;;;5066722;28;20309;-79
2021/12/17 12:28:53;;;;;;;14.80;9.77;;;;;;;;;;5069928;28;20216;-78
2021/12/17 12:32:00;;;;;;;16.13;9.87;;;;;;;;;;5072377;28;20322;-78
2021/12/17 12:34:38;;;;;;;18.10;10.10;;;;;;;;;;5069418;28;20741;-79
2021/12/17 12:37:20;;;;;;;19.37;9.73;;;;;;;;;;5073628;28;20211;-78
2021/12/17 12:40:15;;;;;;;15.37;9.93;;;;;;;;;;5068960;28;20572;-78
2021/12/17 12:42:49;;;;;;;14.97;9.50;;;;;;;;;;5071032;28;20219;-77
2021/12/17 12:45:17;;;;;;;18.00;10.60;;;;;;;;;;5071030;28;20239;-79
2021/12/17 12:47:51;;;;;;;16.60;10.37;;;;;;;;;;5071290;28;20229;-79
2021/12/17 12:50:22;;;;;;;22.13;10.73;;;;;;;;;;5071798;28;20226;-78
2021/12/17 12:52:52;;;;;;;17.13;10.37;;;;;;;;;;5073470;28;20220;-78
2021/12/17 12:55:23;;;;;;;18.70;10.97;;;;;;;;;;5072845;28;20270;-78
2021/12/17 12:57:52;;;;;;;21.43;11.47;;;;;;;;;;5070474;28;20238;-78
2021/12/17 13:00:21;;;;;;;24.37;12.67;;;;;;;;;;5070440;28;20223;-78
2021/12/17 13:02:54;;;;;;;20.43;11.83;;;;;;;;;;5069149;28;20227;-78
2021/12/17 13:05:23;;;;;;;19.03;11.23;;;;;;;;;;5074365;28;20238;-78
2021/12/17 13:07:52;;;;;;;22.73;11.50;;;;;;;;;;5072114;28;20314;-78
2021/12/17 13:10:20;;;;;;;23.00;13.37;;;;;;;;;;5072650;28;20570;-78
2021/12/17 13:12:54;;;;;;;16.50;10.73;;;;;;;;;;5076883;28;20222;-78
2021/12/17 13:15:38;;;;;;;18.03;12.23;;;;;;;;;;5074750;28;20228;-78
2021/12/17 13:21:17;;;;;;;19.83;11.77;;;;;;;;;;5074267;28;20223;-78
2021/12/17 13:26:27;;;;;;;16.03;10.50;;;;;;;;;;5073535;28;20373;-78
2021/12/17 13:29:01;;;;;;;15.47;10.17;;;;;;;;;;5074906;28;20299;-78
2021/12/17 13:31:47;;;;;;;14.60;10.20;;;;;;;;;;5075903;28;20232;-78
2021/12/17 13:34:23;;;;;;;15.00;10.93;;;;;;;;;;5063223;28;20214;-78
2021/12/17 13:36:57;;;;;;;15.97;10.63;;;;;;;;;;5075492;28;20280;-78
2021/12/17 13:39:26;;;;;;;17.53;11.67;;;;;;;;;;5075584;28;20309;-78
2021/12/17 13:41:53;;;;;;;16.33;11.43;;;;;;;;;;5073040;28;20684;-77
2021/12/17 13:44:32;;;;;;;18.00;11.17;;;;;;;;;;5073290;28;20742;-78
2021/12/17 13:47:33;;;;;;;16.60;10.80;;;;;;;;;;5072923;28;20239;-78
2021/12/17 13:50:04;;;;;;;14.37;8.97;;;;;;;;;;4991867;28;20317;-78
2021/12/17 13:52:34;;;;;;;16.67;10.10;;;;;;;;;;4991619;28;20220;-78
2021/12/17 13:55:04;;;;;;;16.87;10.53;;;;;;;;;;5034135;28;20626;-78
2021/12/17 13:57:32;;;;;;;15.83;11.40;;;;;;;;;;5075168;28;20678;-78
2021/12/17 14:00:06;;;;;;;16.50;11.97;;;;;;;;;;5073937;28;20226;-78
2021/12/17 14:02:34;;;;;;;19.27;12.80;;;;;;;;;;5075329;28;20289;-78
2021/12/17 14:05:05;;;;;;;20.07;13.13;;;;;;;;;;5074047;28;20219;-78
2021/12/17 14:07:34;;;;;;;21.73;13.27;;;;;;;;;;5074979;28;20318;-78
2021/12/17 14:10:02;;;;;;;18.70;12.63;;;;;;;;;;5072433;28;20239;-78
2021/12/17 14:12:32;;;;;;;17.73;11.70;;;;;;;;;;5074580;28;20207;-78
2021/12/17 14:15:01;;;;;;;17.43;10.50;;;;;;;;;;5075423;28;20222;-77
2021/12/17 14:17:34;;;;;;;19.17;10.93;;;;;;;;;;5074781;28;20229;-80
2021/12/17 14:20:10;;;;;;;18.23;10.30;;;;;;;;;;5076647;28;20218;-79
2021/12/17 14:22:40;;;;;;;18.53;11.43;;;;;;;;;;5076376;28;20247;-78
2021/12/17 14:25:34;;;;;;;15.87;9.57;;;;;;;;;;5076483;28;20257;-79
2021/12/17 14:28:03;;;;;;;15.17;9.60;;;;;;;;;;5076381;28;20582;-79
2021/12/17 14:30:33;;;;;;;15.13;9.60;;;;;;;;;;5076314;28;20215;-79
2021/12/17 14:33:06;;;;;;;17.87;10.20;;;;;;;;;;5075874;28;20286;-80
2021/12/17 14:35:58;;;;;;;16.03;9.23;;;;;;;;;;5076375;28;20267;-79
2021/12/17 14:38:37;;;;;;;19.53;10.23;;;;;;;;;;5073503;28;20307;-79
2021/12/17 14:41:05;;;;;;;14.67;9.17;;;;;;;;;;5075138;28;20260;-79
2021/12/17 14:43:40;;;;;;;20.23;10.17;;;;;;;;;;5075464;28;20235;-79
2021/12/17 14:46:16;;;;;;;18.23;10.43;;;;;;;;;;5074824;28;20260;-79
2021/12/17 14:48:54;;;;;;;17.73;9.47;;;;;;;;;;5076023;28;20733;-79
2021/12/17 15:02:42;;;;;;;23.10;10.30;;;;;;;;;;5071236;28;20259;-79
2021/12/17 15:05:09;;;;;;;23.63;11.33;;;;;;;;;;5072344;28;20671;-79
2021/12/17 15:07:36;;;;;;;26.30;11.40;;;;;;;;;;5073652;28;20231;-78
2021/12/17 15:10:07;;;;;;;23.77;11.33;;;;;;;;;;5072855;28;20229;-80
2021/12/17 15:12:39;;;;;;;21.97;10.70;;;;;;;;;;5070800;28;20232;-79
2021/12/17 15:15:12;;;;;;;28.20;12.80;;;;;;;;;;5072547;28;20207;-79
2021/12/17 15:17:39;;;;;;;23.77;11.93;;;;;;;;;;5071862;28;20223;-79
2021/12/17 15:20:09;;;;;;;27.30;12.03;;;;;;;;;;5071977;28;20208;-79
2021/12/17 15:22:35;;;;;;;24.73;13.40;;;;;;;;;;5070790;28;20213;-79
2021/12/17 15:25:02;;;;;;;24.43;11.80;;;;;;;;;;5071870;28;20256;-79
2021/12/17 15:27:33;;;;;;;32.10;13.83;;;;;;;;;;5071385;28;20637;-79
2021/12/17 15:29:59;;;;;;;43.97;16.87;;;;;;;;;;5070522;28;20214;-79
2021/12/17 15:32:27;;;;;;;38.17;15.00;;;;;;;;;;5070901;28;20260;-79
2021/12/17 15:34:53;;;;;;;38.70;15.00;;;;;;;;;;5070749;28;20213;-79
2021/12/17 15:37:20;;;;;;;39.17;16.07;;;;;;;;;;5073153;28;20240;-79
2021/12/17 15:39:47;;;;;;;40.87;15.53;;;;;;;;;;5072341;28;20311;-79
2021/12/17 15:42:14;;;;;;;34.77;15.10;;;;;;;;;;5072635;28;20572;-78
2021/12/17 15:44:42;;;;;;;40.27;15.87;;;;;;;;;;5072253;28;20206;-78
2021/12/17 15:47:09;;;;;;;36.70;15.13;;;;;;;;;;5069410;28;21232;-79
2021/12/17 15:49:37;;;;;;;42.87;16.27;;;;;;;;;;5069951;28;20265;-79
2021/12/17 15:52:04;;;;;;;37.60;15.77;;;;;;;;;;5070898;28;20217;-79
2021/12/17 15:54:31;;;;;;;41.23;17.90;;;;;;;;;;5069896;28;20638;-79
2021/12/17 15:56:58;;;;;;;39.50;15.77;;;;;;;;;;5068461;28;20214;-79
2021/12/17 15:59:24;;;;;;;36.57;17.00;;;;;;;;;;5070634;28;20216;-80
2021/12/17 16:01:52;;;;;;;52.30;23.10;;;;;;;;;;5066247;28;20738;-79
2021/12/17 16:04:18;;;;;;;50.13;23.97;;;;;;;;;;5069314;28;20207;-79
2021/12/17 16:06:44;;;;;;;51.33;23.50;;;;;;;;;;5066357;28;20232;-79
2021/12/17 16:09:30;;;;;;;53.17;23.23;;;;;;;;;;5069164;28;20220;-79
2021/12/17 16:12:02;;;;;;;53.60;23.87;;;;;;;;;;5069097;28;20217;-79
2021/12/17 16:18:01;;;;;;;56.50;22.30;;;;;;;;;;5070515;28;20753;-80
2021/12/17 16:23:08;;;;;;;65.43;25.97;;;;;;;;;;5069315;28;20287;-79
2021/12/17 16:25:35;;;;;;;63.67;26.57;;;;;;;;;;5067754;28;20240;-79
2021/12/17 16:28:02;;;;;;;50.77;21.97;;;;;;;;;;5071509;28;20731;-79
2021/12/17 16:30:29;;;;;;;44.53;20.90;;;;;;;;;;5069085;28;20220;-78
2021/12/17 16:32:57;;;;;;;49.63;22.43;;;;;;;;;;5069183;28;20446;-79
2021/12/17 16:35:24;;;;;;;54.00;23.53;;;;;;;;;;5067918;28;20740;-79
2021/12/17 16:37:51;;;;;;;54.57;22.70;;;;;;;;;;5069628;28;20682;-78
2021/12/17 16:40:17;;;;;;;52.70;21.97;;;;;;;;;;5068720;28;20224;-78
2021/12/17 16:42:45;;;;;;;49.60;21.87;;;;;;;;;;5068694;28;20251;-78
2021/12/17 16:45:23;;;;;;;50.33;23.03;;;;;;;;;;5067871;28;20213;-78
2021/12/17 16:47:50;;;;;;;47.00;21.03;;;;;;;;;;5070980;28;20275;-78
2021/12/17 16:50:18;;;;;;;40.20;19.73;;;;;;;;;;5072902;28;20229;-78
2021/12/17 16:52:45;;;;;;;62.30;25.27;;;;;;;;;;5073468;28;20254;-79
2021/12/17 16:55:14;;;;;;;54.20;24.20;;;;;;;;;;5072257;28;20278;-78
2021/12/17 16:57:40;;;;;;;54.53;25.47;;;;;;;;;;5071783;28;20676;-78
2021/12/17 17:00:08;;;;;;;46.80;23.50;;;;;;;;;;5074542;28;20725;-79
2021/12/17 17:02:35;;;;;;;44.17;22.40;;;;;;;;;;5074081;28;20293;-78
2021/12/17 17:05:01;;;;;;;52.77;23.67;;;;;;;;;;5070137;28;20267;-79
2021/12/17 17:07:29;;;;;;;48.03;21.53;;;;;;;;;;5072311;28;20292;-78
2021/12/17 17:09:56;;;;;;;47.33;22.27;;;;;;;;;;5072543;28;20226;-78
2021/12/17 17:12:25;;;;;;;61.33;25.23;;;;;;;;;;5071321;28;20212;-79
2021/12/17 17:14:52;;;;;;;54.60;22.70;;;;;;;;;;5074248;28;20713;-78